createdAt,value
2019-01-24T00:01:47.318Z,68.90
2019-01-24T00:04:17.416Z,69.30
2019-01-24T00:06:47.948Z,69.00
2019-01-24T00:09:18.164Z,68.80
2019-01-24T00:11:48.616Z,68.80
2019-01-24T00:14:18.694Z,68.80
2019-01-24T00:16:49.408Z,68.90
2019-01-24T00:19:19.453Z,69.10
2019-01-24T00:21:49.950Z,67.80
2019-01-24T00:24:20.064Z,69.40
2019-01-24T00:26:50.525Z,68.20
2019-01-24T00:29:20.596Z,68.80
2019-01-24T00:31:51.469Z,68.20
2019-01-24T00:34:23.409Z,69.00
2019-01-24T00:36:53.855Z,68.80
2019-01-24T00:39:24.017Z,68.50
2019-01-24T00:41:54.515Z,68.40
2019-01-24T00:44:24.722Z,68.20
2019-01-24T00:46:55.223Z,68.30
2019-01-24T00:49:25.395Z,67.10
2019-01-24T00:51:59.169Z,66.80
2019-01-24T00:54:29.527Z,66.40
2019-01-24T00:57:00.657Z,66.20
2019-01-24T00:59:30.875Z,66.10
2019-01-24T01:02:01.509Z,66.10
2019-01-24T01:04:31.667Z,66.10
2019-01-24T01:07:01.774Z,66.20
2019-01-24T01:09:31.881Z,66.10
2019-01-24T01:12:02.153Z,65.80
2019-01-24T01:14:32.417Z,65.70
2019-01-24T01:17:02.527Z,65.50
2019-01-24T01:19:32.753Z,65.50
2019-01-24T01:22:03.200Z,65.50
2019-01-24T01:24:33.649Z,65.60
2019-01-24T01:27:04.033Z,65.80
2019-01-24T01:29:35.796Z,66.10
2019-01-24T01:32:05.939Z,66.20
2019-01-24T01:34:36.426Z,66.10
2019-01-24T01:37:06.779Z,65.90
2019-01-24T01:39:36.877Z,66.30
2019-01-24T01:42:07.721Z,66.50
2019-01-24T01:44:37.851Z,66.50
2019-01-24T01:47:08.057Z,66.20
2019-01-24T01:49:38.412Z,66.60
2019-01-24T01:52:08.716Z,67.40
2019-01-24T01:54:40.168Z,68.00
2019-01-24T01:57:10.645Z,68.80
2019-01-24T01:59:40.749Z,69.20
2019-01-24T02:02:11.757Z,69.50
2019-01-24T02:04:43.040Z,70.00
2019-01-24T02:07:13.748Z,70.30
2019-01-24T02:09:43.952Z,70.50
2019-01-24T02:12:16.004Z,70.60
2019-01-24T02:14:46.144Z,70.50
2019-01-24T02:17:16.259Z,70.40
2019-01-24T02:19:46.391Z,70.50
2019-01-24T02:22:19.793Z,70.80
2019-01-24T02:24:49.882Z,71.20
2019-01-24T02:27:20.637Z,72.00
2019-01-24T02:29:50.779Z,71.80
2019-01-24T02:32:21.395Z,71.90
2019-01-24T02:34:51.581Z,72.20
2019-01-24T02:37:21.738Z,72.20
2019-01-24T02:39:51.865Z,72.20
2019-01-24T02:42:22.054Z,71.90
2019-01-24T02:44:53.988Z,72.50
2019-01-24T02:47:24.128Z,72.60
2019-01-24T02:49:54.131Z,72.80
2019-01-24T02:52:24.226Z,73.20
2019-01-24T02:54:54.611Z,73.40
2019-01-24T02:57:25.136Z,73.40
2019-01-24T02:59:55.687Z,73.00
2019-01-24T03:02:25.734Z,73.30
2019-01-24T03:04:57.016Z,73.50
2019-01-24T03:07:27.284Z,73.50
2019-01-24T03:09:57.428Z,73.70
2019-01-24T03:12:27.508Z,73.80
2019-01-24T03:14:58.183Z,73.80
2019-01-24T03:17:28.896Z,73.80
2019-01-24T03:19:59.299Z,73.70
2019-01-24T03:22:29.409Z,73.70
2019-01-24T03:25:00.226Z,73.40
2019-01-24T03:27:30.379Z,73.70
2019-01-24T03:30:02.089Z,73.60
2019-01-24T03:32:32.721Z,73.60
2019-01-24T03:35:04.319Z,73.90
2019-01-24T03:37:35.060Z,74.10
2019-01-24T03:40:09.999Z,74.00
2019-01-24T03:42:40.050Z,73.80
2019-01-24T03:45:15.123Z,74.10
2019-01-24T03:47:45.375Z,76.70
2019-01-24T03:50:20.442Z,74.20
2019-01-24T03:52:51.743Z,73.30
2019-01-24T03:55:22.577Z,73.40
2019-01-24T03:57:53.219Z,73.00
2019-01-24T04:00:25.143Z,72.40
2019-01-24T04:02:56.264Z,71.10
2019-01-24T04:05:26.415Z,70.60
2019-01-24T04:07:56.794Z,70.30
2019-01-24T04:10:26.932Z,70.60
2019-01-24T04:12:57.919Z,70.30
2019-01-24T04:15:30.677Z,70.10
2019-01-24T04:18:01.108Z,70.00
2019-01-24T04:20:31.254Z,70.20
2019-01-24T04:23:02.067Z,70.20
2019-01-24T04:25:32.144Z,70.40
2019-01-24T04:28:02.285Z,70.90
2019-01-24T04:30:32.475Z,71.20
2019-01-24T04:33:02.896Z,71.60
2019-01-24T04:35:34.637Z,71.60
2019-01-24T04:38:04.880Z,71.40
2019-01-24T04:40:34.948Z,71.10
2019-01-24T04:43:07.676Z,70.80
2019-01-24T04:45:37.775Z,71.10
2019-01-24T04:48:09.014Z,71.10
2019-01-24T04:50:39.168Z,70.90
2019-01-24T04:53:09.659Z,71.00
2019-01-24T04:55:40.124Z,71.30
2019-01-24T04:58:10.175Z,71.20
2019-01-24T05:00:40.745Z,71.10
2019-01-24T05:03:10.896Z,71.20
2019-01-24T05:05:41.217Z,71.10
2019-01-24T05:08:11.387Z,70.50
2019-01-24T05:10:41.632Z,70.50
2019-01-24T05:13:11.812Z,71.20
2019-01-24T05:15:42.425Z,70.50
2019-01-24T05:18:12.626Z,71.00
2019-01-24T05:20:43.066Z,70.60
2019-01-24T05:23:14.421Z,70.60
2019-01-24T05:25:44.618Z,70.50
2019-01-24T05:28:14.726Z,70.80
2019-01-24T05:30:44.827Z,70.40
2019-01-24T05:33:14.970Z,70.60
2019-01-24T05:35:45.201Z,70.50
2019-01-24T05:38:15.833Z,69.70
2019-01-24T05:40:45.979Z,70.20
2019-01-24T05:43:16.066Z,70.30
2019-01-24T05:48:16.139Z,70.50
2019-01-24T05:50:47.758Z,70.70
2019-01-24T05:53:19.181Z,71.10
2019-01-24T05:55:51.200Z,71.50
2019-01-24T05:58:22.029Z,71.70
2019-01-24T06:00:52.483Z,72.10
2019-01-24T06:05:52.395Z,72.50
2019-01-24T06:08:23.512Z,71.90
2019-01-24T06:13:23.418Z,70.90
2019-01-24T06:15:53.572Z,71.10
2019-01-24T06:18:24.195Z,71.40
2019-01-24T06:20:54.446Z,71.60
2019-01-24T06:23:26.464Z,71.80
2019-01-24T06:25:57.137Z,71.90
2019-01-24T06:28:27.628Z,72.20
2019-01-24T06:30:58.243Z,71.90
2019-01-24T06:33:29.314Z,71.90
2019-01-24T06:38:29.086Z,72.00
2019-01-24T06:40:59.264Z,71.80
2019-01-24T06:48:31.349Z,71.50
2019-01-24T06:53:33.075Z,72.20
2019-01-24T06:56:06.771Z,72.20
2019-01-24T06:58:38.215Z,73.50
2019-01-24T07:01:09.258Z,72.10
2019-01-24T07:03:39.382Z,71.50
2019-01-24T07:06:09.858Z,71.90
2019-01-24T07:08:41.084Z,72.50
2019-01-24T07:16:11.866Z,72.60
2019-01-24T07:18:42.064Z,71.60
2019-01-24T07:23:42.631Z,71.60
2019-01-24T07:26:15.317Z,72.20
2019-01-24T07:28:46.314Z,71.00
2019-01-24T07:31:16.439Z,70.70
2019-01-24T07:36:16.299Z,70.90
2019-01-24T07:38:46.512Z,71.40
2019-01-24T07:41:17.032Z,71.10
2019-01-24T07:43:47.397Z,71.30
2019-01-24T07:46:18.275Z,70.80
2019-01-24T07:48:48.779Z,71.00
2019-01-24T07:53:48.586Z,70.80
2019-01-24T07:56:18.662Z,71.80
2019-01-24T07:58:50.060Z,70.60
2019-01-24T08:01:20.477Z,70.90
2019-01-24T08:03:50.845Z,71.20
2019-01-24T08:08:56.230Z,71.30
2019-01-24T08:11:27.466Z,72.60
2019-01-24T08:13:58.703Z,72.60
2019-01-24T08:16:31.126Z,73.10
2019-01-24T08:19:01.332Z,74.30
2019-01-24T08:24:01.128Z,75.20
2019-01-24T08:29:00.749Z,76.30
2019-01-24T08:31:30.803Z,76.30
2019-01-24T08:34:01.023Z,78.10
2019-01-24T08:39:00.900Z,76.20
2019-01-24T08:41:32.492Z,76.20
2019-01-24T08:44:03.074Z,76.60
2019-01-24T08:46:33.358Z,76.20
2019-01-24T08:54:04.075Z,76.00
2019-01-24T08:56:34.263Z,75.70
2019-01-24T09:01:33.893Z,76.50
2019-01-24T09:04:05.463Z,76.10
2019-01-24T09:09:08.923Z,75.70
2019-01-24T09:11:39.109Z,75.60
2019-01-24T09:16:39.269Z,75.20
2019-01-24T09:19:09.598Z,75.10
2019-01-24T09:26:39.278Z,76.20
2019-01-24T09:31:40.936Z,74.40
2019-01-24T09:36:43.365Z,73.80
2019-01-24T09:41:44.932Z,73.70
2019-01-24T09:44:16.180Z,73.80
2019-01-24T09:46:46.442Z,74.00
2019-01-24T09:51:48.048Z,74.10
2019-01-24T09:56:48.654Z,74.00
2019-01-24T09:59:18.842Z,75.50
2019-01-24T10:01:48.972Z,73.80
2019-01-24T10:04:19.190Z,73.20
2019-01-24T10:06:50.620Z,72.90
2019-01-24T10:11:51.329Z,73.00
2019-01-24T10:14:21.612Z,72.70
2019-01-24T10:16:52.514Z,72.50
2019-01-24T10:21:52.294Z,73.80
2019-01-24T10:26:52.651Z,72.50
2019-01-24T10:29:22.727Z,72.70
2019-01-24T10:31:53.400Z,72.80
2019-01-24T10:34:23.738Z,73.80
2019-01-24T10:41:53.497Z,73.10
2019-01-24T10:44:23.710Z,73.00
2019-01-24T10:51:56.313Z,72.40
2019-01-24T10:54:26.484Z,72.30
2019-01-24T10:56:56.619Z,72.40
2019-01-24T10:59:26.844Z,71.90
2019-01-24T11:01:56.952Z,71.10
2019-01-24T11:04:27.039Z,71.30
2019-01-24T11:09:27.156Z,70.70
2019-01-24T11:11:57.320Z,70.80
2019-01-24T11:14:27.608Z,70.40
2019-01-24T11:16:58.147Z,71.40
2019-01-24T11:19:28.403Z,71.50
2019-01-24T11:21:58.605Z,70.60
2019-01-24T11:26:58.755Z,69.40
2019-01-24T11:29:29.965Z,68.50
2019-01-24T11:39:29.577Z,68.00
2019-01-24T11:41:59.611Z,66.10
2019-01-24T11:44:32.359Z,67.20
2019-01-24T11:47:02.447Z,67.40
2019-01-24T11:52:02.596Z,66.80
2019-01-24T11:54:32.774Z,66.60
2019-01-24T11:57:06.398Z,66.90
2019-01-24T11:59:36.544Z,67.90
2019-01-24T12:02:07.910Z,66.60
2019-01-24T12:04:38.168Z,67.30
2019-01-24T12:07:08.187Z,65.80
2019-01-24T12:09:38.351Z,65.40
2019-01-24T12:12:08.580Z,64.90
2019-01-24T12:17:08.178Z,64.00
2019-01-24T12:22:09.192Z,62.20
2019-01-24T12:27:08.823Z,61.20
2019-01-24T12:32:09.079Z,62.80
2019-01-24T12:37:11.574Z,61.50
2019-01-24T12:42:12.214Z,60.20
2019-01-24T12:44:42.393Z,60.30
2019-01-24T12:47:12.734Z,61.60
2019-01-24T12:49:43.371Z,61.10
2019-01-24T12:52:13.606Z,62.50
2019-01-24T12:54:44.112Z,62.10
2019-01-24T12:57:14.264Z,61.70
2019-01-24T12:59:44.368Z,61.40
2019-01-24T13:02:14.864Z,61.30
2019-01-24T13:09:46.330Z,61.30
2019-01-24T13:12:16.754Z,62.30
2019-01-24T13:14:46.971Z,61.30
2019-01-24T13:17:17.296Z,62.90
2019-01-24T13:19:48.501Z,60.80
2019-01-24T13:24:49.395Z,61.40
2019-01-24T13:27:19.815Z,61.90
2019-01-24T13:29:52.662Z,61.30
2019-01-24T13:32:23.241Z,61.40
2019-01-24T13:34:53.784Z,59.60
2019-01-24T13:39:55.782Z,61.70
2019-01-24T13:42:26.845Z,61.20
2019-01-24T13:47:26.715Z,60.60
2019-01-24T13:49:58.736Z,60.40
2019-01-24T13:52:28.997Z,60.20
2019-01-24T13:57:30.491Z,60.40
2019-01-24T14:00:00.719Z,60.60
2019-01-24T14:02:32.322Z,60.80
2019-01-24T14:07:33.301Z,60.60
2019-01-24T14:10:04.742Z,60.60
2019-01-24T14:15:06.019Z,59.60
2019-01-24T14:17:36.240Z,59.60
2019-01-24T14:22:36.927Z,59.60
2019-01-24T14:25:09.499Z,59.60
2019-01-24T14:27:41.632Z,59.40
2019-01-24T14:30:22.745Z,59.00
2019-01-24T14:32:53.029Z,59.70
2019-01-24T14:35:23.793Z,59.80
2019-01-24T14:37:54.143Z,59.80
2019-01-24T14:40:25.802Z,60.50
2019-01-24T14:42:56.093Z,60.20
2019-01-24T14:45:27.342Z,60.40
2019-01-24T14:47:57.632Z,61.00
2019-01-24T14:50:27.983Z,60.80
2019-01-24T14:53:02.507Z,59.90
2019-01-24T14:55:32.978Z,60.40
2019-01-24T14:58:06.015Z,60.50
2019-01-24T15:00:39.009Z,60.80
2019-01-24T15:03:09.566Z,63.20
2019-01-24T15:08:14.872Z,61.40
2019-01-24T15:13:17.617Z,61.70
2019-01-24T15:15:47.711Z,62.10
2019-01-24T15:18:18.034Z,61.60
2019-01-24T15:33:22.898Z,62.10
2019-01-24T15:35:53.627Z,62.10
2019-01-24T15:38:23.781Z,63.40
2019-01-24T15:43:24.533Z,63.60
2019-01-24T15:48:25.511Z,62.60
2019-01-24T15:50:55.818Z,62.10
2019-01-24T15:55:55.324Z,61.20
2019-01-24T15:58:25.514Z,62.90
2019-01-24T16:00:55.626Z,63.10
2019-01-24T16:03:25.763Z,62.70
2019-01-24T16:08:26.493Z,63.60
2019-01-24T16:10:57.114Z,62.70
2019-01-24T16:13:29.025Z,62.50
2019-01-24T16:15:59.204Z,62.40
2019-01-24T16:20:58.999Z,63.10
2019-01-24T16:23:29.242Z,62.90
2019-01-24T16:25:59.753Z,62.90
2019-01-24T16:28:29.878Z,63.10
2019-01-24T16:31:01.591Z,63.10
2019-01-24T16:36:01.554Z,62.90
2019-01-24T16:38:32.163Z,62.40
2019-01-24T16:41:04.656Z,62.50
2019-01-24T16:46:04.872Z,63.00
2019-01-24T16:51:04.740Z,62.70
2019-01-24T16:58:35.326Z,63.40
2019-01-24T17:01:17.264Z,62.20
2019-01-24T17:03:47.436Z,62.40
2019-01-24T17:08:48.288Z,63.00
2019-01-24T17:11:18.393Z,62.70
2019-01-24T17:13:48.597Z,62.90
2019-01-24T17:16:18.955Z,63.30
2019-01-24T17:18:49.127Z,63.00
2019-01-24T17:21:19.329Z,62.80
2019-01-24T17:23:49.620Z,62.50
2019-01-24T17:28:50.052Z,62.70
2019-01-24T17:31:20.809Z,62.90
2019-01-24T17:36:20.420Z,62.00
2019-01-24T17:38:50.813Z,61.90
2019-01-24T17:41:21.116Z,61.90
2019-01-24T17:43:51.123Z,62.10
2019-01-24T17:46:22.029Z,62.10
2019-01-24T17:48:55.173Z,61.70
2019-01-24T17:53:55.133Z,61.60
2019-01-24T17:56:25.688Z,61.20
2019-01-24T18:03:55.590Z,62.40
2019-01-24T18:08:56.837Z,60.70
2019-01-24T18:11:27.219Z,60.60
2019-01-24T18:13:58.706Z,60.30
2019-01-24T18:16:28.812Z,60.60
2019-01-24T18:18:59.130Z,59.30
2019-01-24T18:21:34.761Z,60.80
2019-01-24T18:24:05.410Z,61.00
2019-01-24T18:26:35.712Z,60.00
2019-01-24T18:31:36.054Z,61.10
2019-01-24T18:34:07.000Z,60.80
2019-01-24T18:36:37.454Z,62.00
2019-01-24T18:39:10.831Z,60.80
2019-01-24T18:41:41.261Z,60.90
2019-01-24T18:44:11.595Z,60.80
2019-01-24T18:46:44.462Z,60.80
2019-01-24T18:49:15.026Z,60.60
2019-01-24T18:51:47.035Z,60.60
2019-01-24T18:54:19.112Z,59.00
2019-01-24T18:56:49.548Z,60.20
2019-01-24T18:59:21.408Z,60.20
2019-01-24T19:01:51.740Z,60.10
2019-01-24T19:04:22.262Z,60.60
2019-01-24T19:06:53.404Z,60.30
2019-01-24T19:09:24.120Z,60.50
2019-01-24T19:14:23.759Z,60.70
2019-01-24T19:16:53.870Z,60.50
2019-01-24T19:19:23.991Z,61.90
2019-01-24T19:21:55.920Z,61.10
2019-01-24T19:29:25.356Z,61.00
2019-01-24T19:31:56.266Z,60.60
2019-01-24T19:34:26.577Z,61.90
2019-01-24T19:36:58.349Z,60.70
2019-01-24T19:42:00.531Z,61.10
2019-01-24T19:44:30.704Z,61.40
2019-01-24T19:47:01.123Z,61.10
2019-01-24T19:49:31.349Z,61.90
2019-01-24T19:52:01.579Z,61.30
2019-01-24T19:57:01.232Z,61.70
2019-01-24T19:59:31.509Z,61.70
2019-01-24T20:02:01.655Z,63.10
2019-01-24T20:04:33.046Z,61.70
2019-01-24T20:07:03.346Z,62.00
2019-01-24T20:09:33.531Z,61.70
2019-01-24T20:12:03.760Z,63.40
2019-01-24T20:14:33.941Z,62.00
2019-01-24T20:17:04.413Z,63.60
2019-01-24T20:19:34.563Z,62.00
2019-01-24T20:22:04.871Z,62.00
2019-01-24T20:24:35.043Z,60.60
2019-01-24T20:29:35.258Z,61.70
2019-01-24T20:32:05.398Z,63.10
2019-01-24T20:34:35.582Z,62.60
2019-01-24T20:37:05.745Z,64.20
2019-01-24T20:39:35.952Z,62.40
2019-01-24T20:42:06.128Z,62.60
2019-01-24T20:44:36.727Z,62.50
2019-01-24T20:47:06.927Z,61.80
2019-01-24T20:49:37.482Z,62.50
2019-01-24T20:52:07.816Z,62.50
2019-01-24T20:54:38.659Z,62.40
2019-01-24T20:57:08.854Z,63.50
2019-01-24T20:59:39.291Z,62.90
2019-01-24T21:02:09.499Z,62.40
2019-01-24T21:04:40.925Z,62.50
2019-01-24T21:07:11.197Z,62.50
2019-01-24T21:09:42.326Z,61.80
2019-01-24T21:12:12.582Z,62.80
2019-01-24T21:14:44.034Z,62.90
2019-01-24T21:17:16.501Z,62.60
2019-01-24T21:19:47.624Z,62.50
2019-01-24T21:24:47.340Z,63.70
2019-01-24T21:29:46.955Z,62.00
2019-01-24T21:32:17.141Z,61.90
2019-01-24T21:34:48.769Z,61.90
2019-01-24T21:37:19.905Z,62.00
2019-01-24T21:39:50.056Z,61.50
2019-01-24T21:42:20.551Z,61.90
2019-01-24T21:47:20.118Z,62.90
2019-01-24T21:49:50.495Z,61.70
2019-01-24T21:52:21.851Z,61.90
2019-01-24T21:54:52.381Z,61.90
2019-01-24T21:57:22.756Z,61.70
2019-01-24T21:59:52.859Z,62.40
2019-01-24T22:02:23.409Z,61.80
2019-01-24T22:04:53.666Z,60.70
2019-01-24T22:07:24.074Z,60.20
2019-01-24T22:09:54.268Z,59.60
2019-01-24T22:12:24.808Z,59.80
2019-01-24T22:14:54.946Z,59.30
2019-01-24T22:17:25.507Z,59.70
2019-01-24T22:19:55.587Z,60.00
2019-01-24T22:22:27.429Z,60.00
2019-01-24T22:24:58.385Z,59.40
2019-01-24T22:27:29.592Z,59.90
2019-01-24T22:32:29.554Z,59.10
2019-01-24T22:35:00.229Z,59.80
2019-01-24T22:37:30.512Z,59.10
2019-01-24T22:40:02.242Z,59.00
2019-01-24T22:42:32.408Z,59.20
2019-01-24T22:45:03.372Z,59.20
2019-01-24T22:47:33.496Z,59.00
2019-01-24T22:50:04.118Z,59.00
2019-01-24T22:52:34.799Z,58.60
2019-01-24T22:55:05.226Z,58.40
2019-01-24T22:57:37.372Z,58.90
2019-01-24T23:00:52.381Z,58.60
2019-01-24T23:03:34.584Z,58.00
2019-01-24T23:06:05.645Z,58.40
2019-01-24T23:08:37.690Z,58.40
2019-01-24T23:11:08.014Z,58.50
2019-01-24T23:13:40.390Z,58.50
2019-01-24T23:16:10.823Z,58.40
2019-01-24T23:18:41.324Z,58.40
2019-01-24T23:21:11.444Z,58.20
2019-01-24T23:23:42.162Z,57.80
2019-01-24T23:26:12.359Z,59.30
2019-01-24T23:28:42.899Z,58.20
2019-01-24T23:33:42.784Z,58.00
2019-01-24T23:36:13.145Z,58.00
2019-01-24T23:38:43.668Z,58.20
2019-01-24T23:41:13.897Z,58.10
2019-01-24T23:43:44.181Z,58.60
2019-01-24T23:46:14.222Z,58.30
2019-01-24T23:48:44.657Z,58.30
2019-01-24T23:51:15.490Z,58.40
2019-01-24T23:53:48.125Z,58.20
2019-01-24T23:56:18.702Z,58.20
2019-01-24T23:58:49.143Z,57.80
